Skip Navigation Links Skip Navigation Links

Current Weather

Mac Crenshaw Memorial, Greenville, Ala.

For information only: do not use for flight planning or navigation.
Latest weather
Observation time Thursday, January 27, 2022 9:58 PM CST
Local time Thursday, January 27, 2022 11:59 PM CST
Flight conditions Visual Meteorological Conditions
Winds
Wind speed calm
Visibility 10 mi.
Sky condition
Ceiling unlimited
Sky clear
Temperature 41°F
Dewpoint 34°F
Altimeter 30.18 in.Hg
Derived measurements
Relative humidity 76%
Wind chill 41°F
Density altitude -957 ft.
Sea-level pressure 30.03 in.Hg
Remarks
Fully automated report.
System requires maintenance.
Automated weather observing station with precipitation discriminator.
METAR KPRN 280358Z AUTO 00000KT 10SM CLR 05/01 A3018 RMK AO2 SLP168 T00500011 $

Settings

Location code

InnerDrive.Weather 4.0.6770.0 Release CLR 4.0.30319.42000
Copyright ©2018 Inner Drive Technology. All rights reserved. Portions Copyright ©1986-2018 David Braverman.

Find weather

Site navigation


Skip Navigation Links

Place info

Page info

PayPal - The safer, easier way to pay online!

Return home.

Copyright ©2022 Inner Drive Technology. Purveyors of fine, hand-crafted computer software. Page printed 2022-01-28T05:59:30 UTC.